Time;durP1;ratioP1;P1;durP2;ratioP2;P2;SDS_P1;SDS_P2;PMS_P1;PMS_P2;Temp;Humidity;BMP_temperature;BMP_pressure;BME280_temperature;BME280_humidity;BME280_pressure;Samples;Min_cycle;Max_cycle;Signal;HPM_P1;HPM_P2
2024/01/30 00:02:22;;;;;;;53.00;35.47;;;2.70;83.80;;;;;;5054744;28;20098;-66
2024/01/30 00:04:47;;;;;;;54.22;35.67;;;2.70;85.20;;;;;;5053258;28;20131;-67
2024/01/30 00:07:13;;;;;;;51.40;33.63;;;2.70;83.80;;;;;;5054575;28;20025;-66
2024/01/30 00:09:39;;;;;;;50.65;34.13;;;2.70;83.20;;;;;;5054461;28;20025;-67
2024/01/30 00:12:06;;;;;;;45.60;31.35;;;2.60;82.60;;;;;;5054634;28;20021;-67
2024/01/30 00:14:32;;;;;;;45.70;31.10;;;2.60;83.40;;;;;;5054397;28;20432;-69
2024/01/30 00:16:57;;;;;;;49.97;34.13;;;2.60;84.80;;;;;;5053094;28;20035;-66
2024/01/30 00:19:23;;;;;;;43.53;30.35;;;2.60;83.70;;;;;;5054535;28;20028;-66
2024/01/30 00:21:49;;;;;;;39.30;28.42;;;2.60;84.30;;;;;;5054289;28;20059;-65
2024/01/30 00:24:14;;;;;;;42.33;30.02;;;2.60;85.20;;;;;;5054186;28;20082;-66
2024/01/30 00:26:40;;;;;;;38.20;26.70;;;2.50;85.10;;;;;;5054330;28;20024;-66
2024/01/30 00:29:06;;;;;;;38.05;26.73;;;2.50;85.50;;;;;;5054649;28;20051;-68
2024/01/30 00:31:32;;;;;;;41.80;26.50;;;2.50;85.00;;;;;;5052954;28;20056;-68
2024/01/30 00:33:57;;;;;;;42.25;27.17;;;2.50;84.00;;;;;;5053054;28;20390;-65
2024/01/30 00:36:23;;;;;;;45.83;30.40;;;2.50;83.80;;;;;;5054130;28;20541;-64
2024/01/30 00:38:49;;;;;;;42.28;28.20;;;2.50;84.70;;;;;;5054065;28;20013;-67
2024/01/30 00:41:17;;;;;;;38.65;26.95;;;2.40;85.10;;;;;;5053939;28;20056;-66
2024/01/30 00:43:42;;;;;;;39.13;24.92;;;2.40;85.30;;;;;;5054127;28;20111;-67
2024/01/30 00:46:08;;;;;;;38.50;24.98;;;2.30;86.30;;;;;;5054051;28;20059;-66
2024/01/30 00:48:34;;;;;;;38.00;26.50;;;2.30;84.60;;;;;;5053923;28;20056;-66
2024/01/30 00:50:59;;;;;;;47.25;31.80;;;2.30;83.00;;;;;;5053716;28;20021;-65
2024/01/30 00:53:26;;;;;;;46.88;29.02;;;2.30;83.00;;;;;;5053940;28;20032;-67
2024/01/30 00:55:51;;;;;;;40.85;27.65;;;2.30;84.50;;;;;;5053702;28;20050;-69
2024/01/30 00:58:19;;;;;;;34.50;25.52;;;2.20;84.80;;;;;;5053863;28;20029;-68
2024/01/30 01:00:44;;;;;;;33.55;23.27;;;2.20;86.10;;;;;;5054033;28;20036;-65
2024/01/30 01:03:10;;;;;;;37.22;25.27;;;2.20;86.60;;;;;;5052079;28;20033;-68
2024/01/30 01:05:36;;;;;;;40.47;27.65;;;2.10;85.40;;;;;;5052311;28;20040;-66
2024/01/30 01:08:01;;;;;;;38.83;27.25;;;2.10;85.00;;;;;;5052405;28;20033;-67
2024/01/30 01:10:28;;;;;;;35.50;25.38;;;2.10;85.60;;;;;;5052237;28;20036;-65
2024/01/30 01:12:53;;;;;;;39.47;26.15;;;2.10;85.60;;;;;;5053745;28;20403;-66
2024/01/30 01:15:19;;;;;;;36.78;24.77;;;2.10;85.00;;;;;;5053582;28;20024;-65
2024/01/30 01:17:45;;;;;;;34.30;24.27;;;2.10;85.30;;;;;;5052175;28;20021;-66
2024/01/30 01:20:11;;;;;;;36.15;24.10;;;2.10;85.40;;;;;;5053196;28;20460;-65
2024/01/30 01:22:41;;;;;;;35.88;25.55;;;2.10;85.10;;;;;;5053462;28;20033;-66
2024/01/30 01:25:08;;;;;;;35.22;25.52;;;2.10;83.90;;;;;;5053313;28;20053;-66
2024/01/30 01:27:34;;;;;;;42.33;27.90;;;2.10;84.20;;;;;;5053246;28;20482;-67
2024/01/30 01:30:00;;;;;;;37.03;25.27;;;2.00;85.00;;;;;;5053362;28;20096;-64
2024/01/30 01:32:26;;;;;;;31.08;22.27;;;2.00;85.70;;;;;;5053336;28;20040;-64
2024/01/30 01:34:52;;;;;;;34.83;23.80;;;1.90;86.30;;;;;;5053068;28;20025;-64
2024/01/30 01:37:17;;;;;;;33.55;23.83;;;1.90;85.50;;;;;;5053335;28;20526;-64
2024/01/30 01:39:43;;;;;;;32.72;23.35;;;1.90;85.50;;;;;;5053332;28;20021;-67
2024/01/30 01:42:09;;;;;;;31.38;23.17;;;1.90;86.30;;;;;;5053116;28;20033;-64
2024/01/30 01:44:35;;;;;;;36.78;24.02;;;1.90;85.70;;;;;;5052211;28;20371;-65
2024/01/30 01:47:01;;;;;;;34.38;24.08;;;1.90;85.80;;;;;;5051824;28;20028;-67
2024/01/30 01:49:28;;;;;;;44.67;29.45;;;1.80;84.00;;;;;;5052929;28;20100;-65
2024/01/30 01:51:58;;;;;;;37.38;26.27;;;1.80;82.90;;;;;;5052400;28;20379;-65
2024/01/30 01:54:26;;;;;;;31.95;22.38;;;1.70;84.60;;;;;;5053185;28;20383;-63
2024/01/30 01:56:53;;;;;;;33.22;23.17;;;1.70;85.50;;;;;;5052971;28;20021;-64
2024/01/30 01:59:20;;;;;;;34.58;23.08;;;1.70;86.50;;;;;;5053057;28;20025;-65
2024/01/30 02:01:49;;;;;;;31.60;21.30;;;1.60;85.80;;;;;;5052928;28;20029;-67
2024/01/30 02:04:15;;;;;;;33.30;22.73;;;1.70;86.10;;;;;;5056486;28;20044;-65
2024/01/30 02:06:41;;;;;;;74.40;45.63;;;1.70;86.10;;;;;;5057124;28;20482;-66
2024/01/30 02:09:09;;;;;;;49.17;32.28;;;1.60;88.20;;;;;;5056954;28;20021;-64
2024/01/30 02:11:34;;;;;;;62.70;37.25;;;1.50;89.80;;;;;;5056937;28;20025;-67
2024/01/30 02:14:04;;;;;;;53.95;36.95;;;1.50;90.00;;;;;;5056923;28;20475;-65
2024/01/30 02:16:30;;;;;;;62.03;37.75;;;1.50;90.30;;;;;;5056814;28;20044;-66
2024/01/30 02:18:55;;;;;;;53.28;34.92;;;1.50;89.80;;;;;;5056559;28;20025;-64
2024/01/30 02:21:21;;;;;;;56.15;34.35;;;1.50;89.70;;;;;;5056728;28;20494;-64
2024/01/30 02:23:48;;;;;;;49.83;32.58;;;1.50;89.20;;;;;;5056728;28;20036;-67
2024/01/30 02:26:14;;;;;;;47.15;32.05;;;1.50;87.70;;;;;;5056692;28;20021;-66
2024/01/30 02:28:39;;;;;;;39.13;26.63;;;1.50;87.60;;;;;;5056544;28;20545;-66
2024/01/30 02:31:05;;;;;;;35.17;25.20;;;1.50;87.90;;;;;;5056728;28;20109;-65
2024/01/30 02:33:31;;;;;;;32.88;24.38;;;1.30;88.80;;;;;;5055073;28;20071;-64
2024/01/30 02:35:56;;;;;;;34.38;24.45;;;1.30;87.70;;;;;;5055406;28;20075;-63
2024/01/30 02:38:23;;;;;;;31.10;22.52;;;1.40;85.60;;;;;;5056488;28;20021;-65
2024/01/30 02:40:49;;;;;;;30.33;21.27;;;1.40;85.80;;;;;;5055159;28;20036;-67
2024/01/30 02:43:16;;;;;;;27.88;19.27;;;1.40;87.20;;;;;;5054965;28;20372;-66
2024/01/30 02:45:41;;;;;;;27.25;19.10;;;1.30;87.10;;;;;;5055047;28;20040;-67
2024/01/30 02:48:07;;;;;;;26.85;19.00;;;1.30;87.50;;;;;;5054821;28;20475;-64
2024/01/30 02:50:33;;;;;;;29.48;20.33;;;1.30;87.00;;;;;;5056232;28;20136;-67
2024/01/30 02:52:59;;;;;;;25.20;18.08;;;1.30;86.30;;;;;;5056296;28;20029;-67
2024/01/30 02:55:24;;;;;;;25.55;18.10;;;1.30;87.70;;;;;;5056104;28;20025;-65
2024/01/30 02:57:50;;;;;;;22.67;16.35;;;1.30;87.30;;;;;;5056010;28;20028;-66
2024/01/30 03:00:16;;;;;;;21.58;15.70;;;1.30;86.40;;;;;;5056145;28;20017;-67
2024/01/30 03:02:41;;;;;;;21.02;15.70;;;1.30;86.10;;;;;;5054600;28;20033;-67
2024/01/30 03:05:08;;;;;;;25.02;15.70;;;1.30;86.10;;;;;;5055784;28;20053;-64
2024/01/30 03:07:34;;;;;;;20.98;15.02;;;1.30;85.80;;;;;;5056034;28;20047;-67
2024/01/30 03:10:00;;;;;;;22.10;16.08;;;1.20;84.50;;;;;;5055907;28;20021;-64
2024/01/30 03:12:26;;;;;;;23.27;15.80;;;1.20;84.40;;;;;;5054645;28;20021;-67
2024/01/30 03:14:52;;;;;;;22.42;15.65;;;1.20;84.20;;;;;;5054340;28;20486;-63
2024/01/30 03:17:18;;;;;;;24.63;17.33;;;1.10;83.30;;;;;;5054258;28;20051;-63
2024/01/30 03:19:43;;;;;;;28.27;19.35;;;1.10;83.00;;;;;;5055563;28;20479;-64
2024/01/30 03:22:09;;;;;;;24.55;18.38;;;1.10;82.90;;;;;;5055512;28;20064;-64
2024/01/30 03:24:35;;;;;;;31.02;19.67;;;1.10;83.20;;;;;;5055645;28;20028;-65
2024/01/30 03:27:01;;;;;;;24.02;16.55;;;1.10;82.50;;;;;;5054276;28;20468;-67
2024/01/30 03:29:27;;;;;;;22.42;15.70;;;1.00;84.00;;;;;;5055404;28;20017;-64
2024/01/30 03:31:52;;;;;;;20.58;15.48;;;1.00;85.10;;;;;;5055273;28;20036;-64
2024/01/30 03:34:18;;;;;;;18.90;13.50;;;1.00;85.40;;;;;;5055434;28;20021;-66
2024/01/30 03:36:44;;;;;;;21.20;14.73;;;1.00;85.30;;;;;;5055319;28;20025;-65
2024/01/30 03:39:09;;;;;;;18.80;13.73;;;1.00;85.90;;;;;;5053972;28;20505;-65
2024/01/30 03:41:36;;;;;;;18.25;13.82;;;1.00;84.20;;;;;;5055311;28;20457;-66
2024/01/30 03:44:02;;;;;;;23.33;15.35;;;1.00;84.30;;;;;;5055109;28;20028;-68
2024/01/30 03:46:27;;;;;;;19.38;13.77;;;0.90;83.20;;;;;;5053839;28;20078;-68
2024/01/30 03:48:53;;;;;;;18.27;12.75;;;0.90;85.60;;;;;;5055091;28;20127;-66
2024/01/30 03:51:19;;;;;;;17.23;12.52;;;0.80;86.50;;;;;;5054183;28;20426;-65
2024/01/30 03:53:46;;;;;;;19.27;12.85;;;0.80;86.80;;;;;;5054999;28;20025;-65
2024/01/30 03:56:15;;;;;;;18.25;12.60;;;0.80;86.10;;;;;;5053786;28;20065;-67
2024/01/30 03:58:41;;;;;;;21.42;14.85;;;0.80;85.50;;;;;;5053739;28;20068;-64
2024/01/30 04:01:07;;;;;;;17.42;12.30;;;0.80;85.60;;;;;;5054623;28;20025;-68
2024/01/30 04:03:32;;;;;;;14.27;11.48;;;0.80;86.00;;;;;;5054628;28;20055;-64
2024/01/30 04:05:58;;;;;;;16.48;11.43;;;0.70;86.50;;;;;;5053531;28;20028;-67
2024/01/30 04:08:24;;;;;;;16.42;12.27;;;0.70;87.10;;;;;;5054573;28;20056;-66
2024/01/30 04:10:49;;;;;;;24.83;17.95;;;0.70;87.20;;;;;;5053365;28;20020;-67
2024/01/30 04:13:15;;;;;;;18.15;12.52;;;0.70;88.50;;;;;;5053624;28;20025;-68
2024/01/30 04:15:41;;;;;;;16.80;12.05;;;0.60;89.00;;;;;;5054317;28;20387;-67
2024/01/30 04:18:06;;;;;;;17.75;12.02;;;0.60;89.80;;;;;;5054516;28;20028;-67
2024/01/30 04:20:32;;;;;;;15.70;11.82;;;0.60;90.00;;;;;;5054444;28;20052;-65
2024/01/30 04:22:58;;;;;;;16.45;12.70;;;0.60;89.70;;;;;;5053150;28;20043;-64
2024/01/30 04:25:23;;;;;;;18.85;12.60;;;0.70;89.00;;;;;;5054082;28;20020;-64
2024/01/30 04:27:49;;;;;;;13.85;10.93;;;0.60;88.30;;;;;;5054471;28;20467;-67
2024/01/30 04:30:15;;;;;;;14.65;11.18;;;0.70;87.80;;;;;;5054290;28;20032;-68
2024/01/30 04:32:41;;;;;;;12.90;9.88;;;0.60;87.00;;;;;;5054133;28;20021;-63
2024/01/30 04:35:07;;;;;;;12.77;10.00;;;0.70;86.90;;;;;;5054289;28;20021;-67
2024/01/30 04:37:32;;;;;;;14.68;9.93;;;0.60;86.90;;;;;;5054157;28;20100;-64
2024/01/30 04:39:58;;;;;;;18.35;11.88;;;0.60;85.50;;;;;;5053946;28;20566;-66
2024/01/30 04:42:24;;;;;;;15.60;10.88;;;0.60;83.80;;;;;;5053898;28;20110;-67
2024/01/30 04:44:50;;;;;;;17.20;12.10;;;0.50;84.20;;;;;;5054030;28;20364;-66
2024/01/30 04:47:15;;;;;;;24.33;16.42;;;0.50;84.10;;;;;;5054045;28;20021;-64
2024/01/30 04:49:41;;;;;;;16.23;11.93;;;0.40;83.90;;;;;;5053898;28;20024;-67
2024/01/30 04:52:08;;;;;;;18.85;13.27;;;0.30;84.40;;;;;;5053925;28;20035;-66
2024/01/30 04:54:34;;;;;;;17.48;11.15;;;0.30;84.90;;;;;;5053950;28;20021;-66
2024/01/30 04:57:01;;;;;;;17.30;11.55;;;0.30;85.00;;;;;;5052741;28;20029;-64
2024/01/30 04:59:26;;;;;;;16.48;11.38;;;0.30;85.30;;;;;;5053872;28;20491;-64
2024/01/30 05:01:52;;;;;;;16.15;10.50;;;0.30;85.60;;;;;;5053748;28;20029;-65
2024/01/30 05:04:18;;;;;;;16.20;10.50;;;0.30;85.10;;;;;;5053373;28;20167;-65
2024/01/30 05:06:44;;;;;;;14.80;10.35;;;0.30;85.10;;;;;;5052419;28;20021;-67
2024/01/30 05:09:10;;;;;;;15.77;10.32;;;0.30;84.80;;;;;;5053623;28;20070;-65
2024/01/30 05:11:39;;;;;;;15.23;11.23;;;0.40;84.20;;;;;;5053423;28;20096;-66
2024/01/30 05:14:06;;;;;;;16.52;12.23;;;0.30;84.40;;;;;;5052253;28;20025;-63
2024/01/30 05:16:32;;;;;;;17.52;12.52;;;0.20;83.80;;;;;;5053582;28;20021;-67
2024/01/30 05:18:58;;;;;;;19.25;12.85;;;0.20;84.10;;;;;;5052108;28;20112;-64
2024/01/30 05:21:24;;;;;;;19.25;12.68;;;0.20;84.40;;;;;;5053502;28;20106;-64
2024/01/30 05:23:49;;;;;;;22.85;14.45;;;0.20;84.00;;;;;;5053424;28;20087;-67
2024/01/30 05:26:15;;;;;;;17.67;11.93;;;0.20;84.30;;;;;;5053092;28;20032;-65
2024/01/30 05:28:41;;;;;;;17.85;12.60;;;0.20;83.60;;;;;;5053417;28;20025;-65
2024/01/30 05:31:07;;;;;;;18.48;12.13;;;0.20;83.60;;;;;;5053353;28;20017;-64
2024/01/30 05:33:32;;;;;;;20.27;13.90;;;0.10;84.50;;;;;;5052074;28;20028;-66
2024/01/30 05:35:58;;;;;;;23.77;14.85;;;0.10;83.60;;;;;;5053222;28;20025;-65
2024/01/30 05:38:24;;;;;;;31.42;18.48;;;0.10;83.70;;;;;;5052624;28;20055;-66
2024/01/30 05:40:49;;;;;;;23.48;15.55;;;0.10;84.80;;;;;;5051810;28;20471;-64
2024/01/30 05:43:15;;;;;;;32.15;20.50;;;0.00;85.90;;;;;;5052830;28;20079;-66
2024/01/30 05:45:41;;;;;;;26.77;17.05;;;0.00;87.30;;;;;;5053373;28;20021;-66
2024/01/30 05:48:07;;;;;;;32.67;19.95;;;0.00;87.10;;;;;;5053202;28;20067;-64
2024/01/30 05:50:32;;;;;;;46.70;28.23;;;0.00;88.20;;;;;;5051834;28;20025;-66
2024/01/30 05:52:58;;;;;;;36.55;24.45;;;0.10;89.10;;;;;;5053098;28;20028;-64
2024/01/30 05:55:24;;;;;;;44.15;26.85;;;0.10;89.60;;;;;;5052908;28;20024;-66
2024/01/30 05:57:50;;;;;;;49.92;31.67;;;0.10;89.10;;;;;;5051707;28;20074;-67
2024/01/30 06:00:16;;;;;;;42.65;27.90;;;0.10;89.00;;;;;;5051742;28;20066;-66
2024/01/30 06:02:42;;;;;;;35.10;23.42;;;0.10;88.90;;;;;;5051724;28;20037;-66
2024/01/30 06:05:08;;;;;;;32.33;22.05;;;0.10;88.60;;;;;;5052743;28;20048;-67
2024/01/30 06:07:34;;;;;;;35.70;23.98;;;0.00;89.40;;;;;;5052899;28;20025;-67
2024/01/30 06:10:01;;;;;;;36.20;23.63;;;0.00;88.50;;;;;;5052759;28;20108;-67
2024/01/30 06:12:28;;;;;;;31.55;22.33;;;0.10;87.90;;;;;;5051703;28;20517;-66
2024/01/30 06:14:56;;;;;;;33.40;21.55;;;0.00;88.30;;;;;;5052896;28;20474;-67
2024/01/30 06:17:23;;;;;;;29.20;19.55;;;0.10;88.30;;;;;;5051662;28;20028;-67
2024/01/30 06:19:48;;;;;;;27.73;18.63;;;0.10;88.40;;;;;;5052622;28;20017;-68
2024/01/30 06:22:15;;;;;;;29.45;18.98;;;0.20;87.50;;;;;;5051466;28;20033;-65
2024/01/30 06:24:41;;;;;;;36.33;22.42;;;0.20;87.90;;;;;;5052587;28;20442;-66
2024/01/30 06:27:06;;;;;;;27.88;18.92;;;0.20;88.70;;;;;;5051521;28;20111;-67
2024/01/30 06:29:32;;;;;;;28.58;20.75;;;0.20;88.70;;;;;;5051290;28;20055;-66
2024/01/30 06:31:58;;;;;;;34.53;23.45;;;0.10;87.90;;;;;;5052764;28;20029;-65
2024/01/30 06:34:26;;;;;;;26.60;19.15;;;0.20;86.30;;;;;;5052829;28;20092;-68
2024/01/30 06:36:52;;;;;;;36.10;24.35;;;0.20;86.60;;;;;;5052674;28;20112;-67
2024/01/30 06:39:18;;;;;;;29.45;19.85;;;0.20;84.50;;;;;;5051488;28;20144;-66
2024/01/30 06:41:46;;;;;;;34.33;22.40;;;0.10;86.40;;;;;;5052795;28;20037;-68
2024/01/30 06:44:12;;;;;;;33.20;23.35;;;0.10;87.50;;;;;;5052527;28;20116;-66
2024/01/30 06:46:38;;;;;;;27.13;19.35;;;0.00;88.40;;;;;;5052637;28;20028;-67
2024/01/30 06:49:05;;;;;;;25.75;18.98;;;0.00;89.20;;;;;;5053123;28;20025;-65
2024/01/30 06:51:31;;;;;;;31.52;21.75;;;0.00;88.90;;;;;;5038067;28;20038;-65
2024/01/30 06:53:56;;;;;;;35.70;23.48;;;0.10;88.60;;;;;;5039053;28;20036;-66
2024/01/30 06:56:22;;;;;;;38.55;24.67;;;0.10;88.40;;;;;;5037748;28;20026;-69
2024/01/30 06:58:51;;;;;;;65.15;37.67;;;0.10;89.40;;;;;;5035837;28;20033;-64
2024/01/30 07:01:17;;;;;;;39.67;25.92;;;0.20;88.90;;;;;;5035002;28;20017;-64
2024/01/30 07:03:43;;;;;;;36.10;23.40;;;0.20;89.40;;;;;;5037652;28;20056;-66
2024/01/30 07:06:12;;;;;;;35.40;24.75;;;0.20;88.40;;;;;;5045489;28;20115;-69
2024/01/30 07:08:47;;;;;;;28.95;20.08;;;0.30;87.30;;;;;;5051845;28;20108;-67
2024/01/30 07:11:19;;;;;;;63.75;38.67;;;0.30;86.80;;;;;;5054884;28;20029;-66
2024/01/30 07:13:46;;;;;;;90.88;54.15;;;0.40;88.30;;;;;;5054693;28;20025;-65
2024/01/30 07:16:12;;;;;;;164.27;97.97;;;0.30;89.70;;;;;;5053844;28;20107;-64
2024/01/30 07:18:38;;;;;;;173.52;106.55;;;0.20;90.70;;;;;;5052884;28;20075;-67
2024/01/30 07:21:04;;;;;;;169.18;103.10;;;0.10;91.40;;;;;;5055622;28;20021;-66
2024/01/30 07:23:30;;;;;;;130.65;80.38;;;0.10;91.80;;;;;;5056022;28;20092;-64
2024/01/30 07:25:56;;;;;;;112.32;69.30;;;0.10;91.80;;;;;;5056174;28;20139;-64
2024/01/30 07:28:22;;;;;;;122.50;73.78;;;0.20;91.60;;;;;;5054382;28;20108;-65
2024/01/30 07:30:48;;;;;;;98.60;63.58;;;0.30;91.30;;;;;;5052216;28;20107;-66
2024/01/30 07:33:14;;;;;;;105.55;66.38;;;0.40;91.30;;;;;;5052821;28;20488;-66
2024/01/30 07:35:40;;;;;;;101.10;63.33;;;0.50;90.70;;;;;;5052794;28;20070;-65
2024/01/30 07:38:06;;;;;;;170.30;108.60;;;0.60;90.30;;;;;;5052123;28;20033;-64
2024/01/30 07:40:33;;;;;;;241.55;154.85;;;0.80;90.00;;;;;;5052453;28;20028;-63
2024/01/30 07:42:59;;;;;;;359.13;220.80;;;0.90;90.40;;;;;;5052361;28;20083;-64
2024/01/30 07:45:26;;;;;;;259.45;167.68;;;1.70;88.20;;;;;;5054871;28;20060;-68
2024/01/30 07:47:52;;;;;;;293.42;199.32;;;3.60;75.80;;;;;;5045629;28;20024;-66
2024/01/30 07:50:18;;;;;;;222.30;155.93;;;5.80;56.10;;;;;;5044446;28;20112;-65
2024/01/30 07:52:56;;;;;;;208.90;149.60;;;7.50;50.10;;;;;;5039050;28;20021;-68
2024/01/30 07:55:24;;;;;;;194.57;142.13;;;9.10;46.70;;;;;;5033563;28;20030;-67
2024/01/30 07:57:52;;;;;;;183.98;137.95;;;10.30;43.10;;;;;;5039278;28;20070;-66
2024/01/30 08:00:19;;;;;;;168.18;125.95;;;11.40;40.20;;;;;;5051768;28;20029;-69
2024/01/30 08:02:45;;;;;;;156.25;123.57;;;12.20;38.80;;;;;;5051093;28;20495;-66
2024/01/30 08:05:11;;;;;;;151.10;115.07;;;12.90;36.80;;;;;;5053450;28;20052;-70
2024/01/30 08:07:37;;;;;;;136.23;107.47;;;13.70;36.00;;;;;;5041847;28;20443;-66
2024/01/30 08:10:03;;;;;;;115.50;94.20;;;14.40;33.80;;;;;;5051081;28;20025;-69
2024/01/30 08:12:29;;;;;;;107.45;86.28;;;14.80;32.80;;;;;;5047991;28;20093;-69
2024/01/30 08:14:55;;;;;;;98.60;79.15;;;15.60;32.10;;;;;;5052219;28;20108;-69
2024/01/30 08:17:22;;;;;;;87.78;73.22;;;15.90;30.60;;;;;;5050282;28;20037;-66
2024/01/30 08:19:47;;;;;;;83.28;65.57;;;16.70;30.20;;;;;;5049568;28;20419;-71
2024/01/30 08:22:13;;;;;;;80.70;63.25;;;17.30;29.00;;;;;;5032881;28;20447;-65
2024/01/30 08:24:41;;;;;;;79.25;64.03;;;17.50;28.40;;;;;;5032776;28;20399;-66
2024/01/30 08:27:09;;;;;;;77.82;62.92;;;17.60;28.60;;;;;;5038897;28;20026;-66
2024/01/30 08:29:35;;;;;;;75.18;61.88;;;18.00;28.40;;;;;;5040497;28;20029;-72
2024/01/30 08:32:01;;;;;;;82.32;65.60;;;18.30;28.00;;;;;;5034260;28;20458;-65
2024/01/30 08:34:27;;;;;;;80.72;67.85;;;18.40;28.10;;;;;;5041362;28;20403;-66
2024/01/30 08:36:53;;;;;;;84.07;68.20;;;18.70;27.50;;;;;;5044373;28;20029;-66
2024/01/30 08:39:19;;;;;;;78.68;66.00;;;19.10;27.40;;;;;;5036661;28;20043;-66
2024/01/30 08:41:48;;;;;;;75.40;64.22;;;19.30;26.90;;;;;;5034057;28;20522;-65
2024/01/30 08:44:27;;;;;;;81.40;67.65;;;19.50;27.20;;;;;;5035119;28;20025;-63
2024/01/30 08:46:58;;;;;;;65.45;57.15;;;19.80;27.00;;;;;;5039821;28;20030;-65
2024/01/30 08:49:44;;;;;;;66.22;55.72;;;19.80;26.70;;;;;;5027282;28;20086;-65
2024/01/30 08:52:10;;;;;;;63.92;56.53;;;19.50;26.90;;;;;;5029917;28;20052;-65
2024/01/30 08:54:39;;;;;;;62.30;55.45;;;18.80;27.50;;;;;;5039042;28;20087;-66
2024/01/30 08:57:05;;;;;;;60.90;53.10;;;17.50;28.90;;;;;;5038526;28;20029;-64
2024/01/30 08:59:33;;;;;;;52.70;46.20;;;17.40;29.10;;;;;;5045880;28;20024;-64
2024/01/30 09:01:59;;;;;;;47.95;42.80;;;17.70;29.20;;;;;;5039154;28;20068;-67
2024/01/30 09:04:25;;;;;;;58.75;50.25;;;17.90;29.10;;;;;;5036254;28;20076;-66
2024/01/30 09:06:52;;;;;;;47.97;42.83;;;17.90;28.30;;;;;;5033242;28;20097;-65
2024/01/30 09:09:19;;;;;;;55.78;44.00;;;17.60;29.70;;;;;;5037548;28;20072;-65
2024/01/30 09:11:44;;;;;;;44.83;38.75;;;17.40;29.10;;;;;;5035708;28;20038;-66
2024/01/30 09:14:22;;;;;;;39.75;35.42;;;16.70;31.00;;;;;;5035802;28;20361;-66
2024/01/30 09:16:51;;;;;;;38.58;34.30;;;16.20;30.30;;;;;;5031136;28;20071;-66
2024/01/30 09:19:42;;;;;;;35.35;31.58;;;15.60;33.20;;;;;;5031829;28;20038;-64
2024/01/30 09:22:11;;;;;;;36.13;32.33;;;15.50;32.10;;;;;;5032983;28;20045;-65
2024/01/30 09:24:38;;;;;;;52.30;42.70;;;15.50;32.20;;;;;;5037803;28;20040;-65
2024/01/30 09:27:07;;;;;;;42.20;37.67;;;14.90;32.70;;;;;;5048570;28;20108;-65
2024/01/30 09:29:36;;;;;;;47.30;39.58;;;14.50;34.00;;;;;;5036539;28;20124;-65
2024/01/30 09:32:04;;;;;;;43.45;38.55;;;14.40;34.10;;;;;;5030777;28;20075;-64
2024/01/30 09:34:31;;;;;;;39.25;35.13;;;14.40;33.70;;;;;;5039701;28;20558;-67
2024/01/30 09:36:57;;;;;;;36.22;32.40;;;14.30;34.60;;;;;;5034829;28;20039;-65
2024/01/30 09:39:22;;;;;;;34.45;30.88;;;14.50;34.20;;;;;;5034603;28;20108;-69
2024/01/30 09:42:25;;;;;;;33.67;30.15;;;14.50;33.80;;;;;;5027590;28;20052;-67
2024/01/30 09:44:53;;;;;;;32.03;28.70;;;14.30;34.10;;;;;;5030336;28;20025;-67
2024/01/30 09:47:19;;;;;;;30.92;27.58;;;14.30;34.60;;;;;;5032190;28;20037;-67
2024/01/30 09:49:44;;;;;;;41.83;37.30;;;14.60;34.30;;;;;;5041764;28;20375;-70
2024/01/30 09:52:38;;;;;;;42.30;37.75;;;14.70;33.50;;;;;;5042308;28;20026;-67
2024/01/30 09:55:06;;;;;;;35.83;31.95;;;14.40;34.30;;;;;;5042009;28;20037;-67
2024/01/30 09:57:37;;;;;;;36.00;32.17;;;14.50;34.30;;;;;;5042489;28;20231;-67
2024/01/30 10:00:04;;;;;;;37.47;33.50;;;14.60;34.40;;;;;;5049164;28;20017;-70
2024/01/30 10:02:32;;;;;;;36.53;32.63;;;14.90;33.90;;;;;;5048771;28;20021;-68
2024/01/30 10:04:58;;;;;;;39.55;35.45;;;15.10;33.30;;;;;;5049546;28;20132;-65
2024/01/30 10:07:24;;;;;;;37.53;33.65;;;15.10;33.80;;;;;;5049738;28;20052;-67
2024/01/30 10:09:49;;;;;;;35.38;31.73;;;15.20;33.90;;;;;;5049632;28;20437;-66
2024/01/30 10:12:16;;;;;;;33.42;30.08;;;15.40;33.50;;;;;;5050885;28;20029;-70
2024/01/30 10:14:43;;;;;;;32.42;29.13;;;15.50;32.90;;;;;;5051048;28;20017;-68
2024/01/30 10:17:09;;;;;;;31.45;28.23;;;15.70;33.00;;;;;;5051980;28;20031;-69
2024/01/30 10:19:36;;;;;;;30.80;27.60;;;15.80;33.50;;;;;;5044353;28;20021;-67
2024/01/30 10:22:03;;;;;;;28.67;25.77;;;15.80;33.40;;;;;;5044546;28;20045;-65
2024/01/30 10:24:31;;;;;;;25.75;23.25;;;15.70;32.60;;;;;;5044632;28;20029;-64
2024/01/30 10:26:58;;;;;;;24.48;22.08;;;15.90;32.40;;;;;;5037856;28;20032;-65
2024/01/30 10:29:24;;;;;;;24.80;22.40;;;15.80;31.80;;;;;;5037752;28;20036;-66
2024/01/30 10:32:00;;;;;;;24.60;22.13;;;15.80;32.30;;;;;;5039120;28;20024;-68
2024/01/30 10:34:26;;;;;;;24.67;22.27;;;15.90;34.00;;;;;;5050728;28;20045;-66
2024/01/30 10:37:04;;;;;;;23.17;20.70;;;15.90;31.70;;;;;;5043146;28;20057;-65
2024/01/30 10:39:31;;;;;;;23.30;20.90;;;16.00;32.30;;;;;;5032887;28;20418;-66
2024/01/30 10:42:05;;;;;;;22.10;19.83;;;16.00;32.10;;;;;;5044730;28;20037;-68
2024/01/30 10:44:43;;;;;;;19.67;17.73;;;16.00;31.50;;;;;;5039261;28;20036;-67
2024/01/30 10:47:13;;;;;;;20.15;18.23;;;16.20;31.70;;;;;;5034764;28;20113;-68
2024/01/30 10:49:46;;;;;;;20.13;18.27;;;16.20;32.00;;;;;;5041873;28;20116;-69
2024/01/30 10:52:16;;;;;;;19.50;17.60;;;16.30;31.60;;;;;;5050043;28;20060;-64
2024/01/30 10:54:45;;;;;;;18.98;17.08;;;16.30;30.50;;;;;;5050545;28;20071;-67
2024/01/30 10:57:12;;;;;;;17.20;15.63;;;16.40;31.00;;;;;;5060812;28;20025;-67
2024/01/30 10:59:39;;;;;;;17.45;15.65;;;16.70;31.20;;;;;;5056203;28;20094;-64
2024/01/30 11:02:06;;;;;;;15.43;13.95;;;16.60;30.80;;;;;;5061906;28;20047;-66
2024/01/30 11:04:40;;;;;;;13.82;12.63;;;16.40;32.90;;;;;;5039739;28;20088;-69
2024/01/30 11:07:16;;;;;;;11.60;10.50;;;16.40;32.10;;;;;;5044731;28;20032;-67
2024/01/30 11:09:54;;;;;;;11.98;10.88;;;16.30;31.80;;;;;;5040844;28;20048;-67
2024/01/30 11:12:28;;;;;;;10.95;9.85;;;16.30;31.70;;;;;;5032539;28;20086;-66
2024/01/30 11:15:07;;;;;;;12.27;10.93;;;16.50;31.00;;;;;;5034045;28;20114;-67
2024/01/30 11:17:48;;;;;;;10.38;9.48;;;16.60;29.00;;;;;;5036133;28;20372;-67
2024/01/30 11:20:16;;;;;;;7.95;7.25;;;16.20;29.00;;;;;;5040541;28;20033;-67
2024/01/30 11:22:45;;;;;;;7.60;6.85;;;16.20;29.60;;;;;;5033722;28;20029;-69
2024/01/30 11:25:13;;;;;;;6.03;5.53;;;16.60;28.70;;;;;;5042117;28;20043;-67
2024/01/30 11:27:39;;;;;;;5.13;4.72;;;16.60;28.20;;;;;;5038641;28;20028;-71
2024/01/30 11:30:05;;;;;;;4.28;3.95;;;16.60;27.50;;;;;;5036630;28;20038;-67
2024/01/30 11:32:31;;;;;;;4.72;3.70;;;16.80;28.40;;;;;;5049890;28;20479;-65
2024/01/30 11:34:58;;;;;;;4.88;4.47;;;16.70;28.30;;;;;;5051759;28;20028;-71
2024/01/30 11:37:26;;;;;;;5.28;4.78;;;16.70;29.50;;;;;;5037916;28;20126;-64
2024/01/30 11:39:54;;;;;;;7.20;6.50;;;16.60;29.10;;;;;;5039146;28;20025;-69
2024/01/30 11:42:21;;;;;;;6.03;5.53;;;16.40;27.70;;;;;;5039051;28;20073;-66
2024/01/30 11:44:47;;;;;;;3.92;3.60;;;16.00;28.00;;;;;;5040582;28;20024;-71
2024/01/30 11:47:16;;;;;;;3.83;3.42;;;15.80;28.20;;;;;;5041359;28;20028;-66
2024/01/30 11:49:43;;;;;;;3.70;3.40;;;15.90;29.40;;;;;;5041486;28;20061;-69
2024/01/30 11:52:12;;;;;;;4.15;3.80;;;16.30;28.20;;;;;;5060374;28;20052;-66
2024/01/30 11:54:42;;;;;;;3.30;3.00;;;16.20;28.50;;;;;;5044820;28;20409;-69
2024/01/30 11:57:09;;;;;;;3.60;3.30;;;16.10;28.50;;;;;;5044358;28;20026;-65
2024/01/30 11:59:34;;;;;;;5.35;4.85;;;15.80;28.30;;;;;;5041048;28;20020;-69
2024/01/30 12:02:00;;;;;;;5.13;4.72;;;15.60;28.50;;;;;;5039207;28;20365;-64
2024/01/30 12:04:29;;;;;;;3.60;3.30;;;15.60;28.70;;;;;;5038642;28;20148;-67
2024/01/30 12:06:55;;;;;;;2.88;2.53;;;15.50;27.80;;;;;;5035730;28;20472;-67
2024/01/30 12:09:21;;;;;;;3.33;3.03;;;15.40;28.40;;;;;;5039922;28;20036;-67
2024/01/30 12:11:48;;;;;;;2.95;2.65;;;15.50;30.40;;;;;;5043022;28;20193;-67
2024/01/30 12:14:15;;;;;;;3.20;2.90;;;15.80;29.10;;;;;;5048667;28;20021;-65
2024/01/30 12:16:43;;;;;;;3.35;3.05;;;16.20;28.80;;;;;;5049172;28;20013;-65
2024/01/30 12:19:09;;;;;;;4.03;3.65;;;16.30;28.70;;;;;;5052028;28;20029;-66
2024/01/30 12:21:35;;;;;;;5.57;5.07;;;16.40;28.70;;;;;;5050952;28;20020;-64
2024/01/30 12:24:01;;;;;;;4.40;4.03;;;16.40;27.60;;;;;;5050157;28;20029;-65
2024/01/30 12:26:27;;;;;;;3.65;3.38;;;16.40;28.50;;;;;;5051688;28;20083;-66
2024/01/30 12:29:01;;;;;;;3.55;3.25;;;16.40;28.40;;;;;;5051640;28;20021;-65
2024/01/30 12:31:32;;;;;;;;;;;16.60;29.20;;;;;;5052542;28;20020;-67
2024/01/30 12:34:00;;;;;;;3.53;3.22;;;17.10;28.40;;;;;;5052202;28;19905;-65